createdAt,value
2019-03-18T00:01:50.905Z,14.40
2019-03-18T00:04:31.602Z,14.30
2019-03-18T00:07:13.210Z,14.40
2019-03-18T00:09:53.925Z,14.20
2019-03-18T00:12:34.595Z,14.40
2019-03-18T00:15:15.476Z,14.40
2019-03-18T00:17:56.875Z,14.30
2019-03-18T00:20:38.414Z,14.30
2019-03-18T00:23:19.169Z,14.30
2019-03-18T00:25:59.795Z,14.30
2019-03-18T00:28:41.270Z,14.30
2019-03-18T00:31:22.996Z,14.30
2019-03-18T00:34:04.349Z,14.30
2019-03-18T00:36:45.546Z,14.30
2019-03-18T00:39:26.671Z,14.30
2019-03-18T00:42:08.188Z,14.30
2019-03-18T00:44:49.565Z,14.30
2019-03-18T00:47:30.726Z,14.30
2019-03-18T00:50:11.935Z,14.30
2019-03-18T00:52:52.953Z,14.30
2019-03-18T00:55:33.658Z,14.30
2019-03-18T00:58:15.355Z,14.30
2019-03-18T01:00:56.851Z,14.30
2019-03-18T01:03:38.383Z,14.00
2019-03-18T01:06:19.200Z,14.20
2019-03-18T01:09:00.710Z,14.30
2019-03-18T01:11:41.514Z,14.20
2019-03-18T01:14:22.838Z,14.30
2019-03-18T01:17:04.294Z,14.20
2019-03-18T01:19:45.783Z,14.30
2019-03-18T01:22:26.496Z,14.20
2019-03-18T01:25:08.020Z,14.20
2019-03-18T01:27:48.608Z,14.20
2019-03-18T01:30:29.314Z,14.20
2019-03-18T01:33:09.928Z,14.20
2019-03-18T01:35:50.627Z,14.20
2019-03-18T01:38:31.391Z,14.20
2019-03-18T01:41:12.900Z,14.20
2019-03-18T01:43:54.089Z,14.20
2019-03-18T01:46:35.142Z,14.20
2019-03-18T01:49:16.189Z,14.20
2019-03-18T01:51:57.646Z,14.20
2019-03-18T01:54:39.022Z,14.20
2019-03-18T01:57:20.351Z,14.20
2019-03-18T02:00:01.646Z,14.10
2019-03-18T02:02:43.185Z,14.20
2019-03-18T02:05:24.553Z,14.10
2019-03-18T02:08:06.030Z,14.20
2019-03-18T02:10:47.106Z,14.10
2019-03-18T02:13:27.744Z,14.10
2019-03-18T02:16:09.167Z,14.20
2019-03-18T02:18:50.067Z,14.10
2019-03-18T02:21:30.988Z,14.10
2019-03-18T02:24:11.579Z,14.10
2019-03-18T02:26:52.380Z,14.10
2019-03-18T02:29:33.847Z,14.20
2019-03-18T02:32:14.775Z,14.10
2019-03-18T02:34:56.112Z,14.20
2019-03-18T02:37:36.783Z,14.20
2019-03-18T02:40:17.355Z,14.10
2019-03-18T02:42:58.779Z,14.10
2019-03-18T02:45:40.180Z,14.20
2019-03-18T02:48:21.705Z,14.20
2019-03-18T02:51:02.853Z,14.10
2019-03-18T02:53:43.666Z,14.20
2019-03-18T02:56:24.494Z,14.10
2019-03-18T02:59:05.310Z,14.10
2019-03-18T03:01:46.111Z,14.10
2019-03-18T03:04:27.732Z,14.10
2019-03-18T03:07:08.597Z,14.10
2019-03-18T03:09:50.399Z,14.20
2019-03-18T03:12:31.323Z,14.20
2019-03-18T03:15:12.064Z,14.10
2019-03-18T03:17:53.654Z,14.10
2019-03-18T03:20:35.129Z,14.10
2019-03-18T03:23:16.051Z,14.10
2019-03-18T03:25:57.665Z,14.10
2019-03-18T03:59:29.610Z,14.00
2019-03-18T04:02:10.378Z,14.00
2019-03-18T04:04:51.958Z,14.00
2019-03-18T04:07:33.558Z,14.10
2019-03-18T04:10:15.253Z,14.00
2019-03-18T04:12:56.466Z,14.10
2019-03-18T04:15:37.267Z,14.10
2019-03-18T04:18:18.866Z,14.10
2019-03-18T04:21:00.574Z,14.00
2019-03-18T04:23:42.054Z,14.00
2019-03-18T04:26:22.657Z,14.10
2019-03-18T04:29:04.188Z,13.80
2019-03-18T04:31:45.861Z,14.10
2019-03-18T04:34:26.651Z,14.00
2019-03-18T04:37:08.174Z,14.00
2019-03-18T04:39:48.979Z,14.00
2019-03-18T04:42:29.709Z,13.70
2019-03-18T04:45:10.419Z,14.00
2019-03-18T04:47:51.484Z,14.10
2019-03-18T04:50:32.882Z,14.00
2019-03-18T04:53:14.328Z,13.90
2019-03-18T04:55:54.906Z,13.70
2019-03-18T04:58:36.440Z,14.10
2019-03-18T05:01:17.366Z,14.00
2019-03-18T05:03:58.095Z,13.90
2019-03-18T05:06:39.468Z,13.60
2019-03-18T05:09:20.179Z,14.00
2019-03-18T05:12:01.740Z,14.00
2019-03-18T05:14:43.525Z,14.00
2019-03-18T05:17:26.780Z,14.00
2019-03-18T05:20:07.875Z,14.00
2019-03-18T05:22:48.925Z,14.00
2019-03-18T05:25:30.277Z,13.90
2019-03-18T05:28:11.050Z,13.60
2019-03-18T05:30:52.682Z,13.90
2019-03-18T05:33:34.101Z,13.90
2019-03-18T05:36:14.812Z,13.90
2019-03-18T05:38:56.181Z,14.00
2019-03-18T05:41:37.298Z,13.90
2019-03-18T05:44:18.935Z,14.00
2019-03-18T05:47:00.425Z,13.90
2019-03-18T05:49:41.960Z,13.90
2019-03-18T05:52:22.736Z,13.90
2019-03-18T05:55:04.230Z,13.90
2019-03-18T05:57:45.880Z,13.90
2019-03-18T06:00:27.248Z,13.90
2019-03-18T06:03:08.131Z,13.90
2019-03-18T06:05:49.403Z,13.90
2019-03-18T06:08:30.831Z,13.90
2019-03-18T06:11:12.156Z,13.90
2019-03-18T06:13:53.156Z,13.60
2019-03-18T06:16:34.628Z,13.90
2019-03-18T06:19:16.284Z,13.90
2019-03-18T06:21:57.223Z,13.90
2019-03-18T06:24:38.743Z,13.90
2019-03-18T06:27:19.993Z,13.90
2019-03-18T06:30:01.253Z,13.90
2019-03-18T06:32:42.931Z,13.90
2019-03-18T06:35:24.508Z,13.90
2019-03-18T06:38:05.205Z,13.90
2019-03-18T06:40:45.964Z,13.90
2019-03-18T06:43:28.551Z,13.90
2019-03-18T06:46:09.311Z,13.80
2019-03-18T06:48:50.946Z,13.90
2019-03-18T06:51:32.491Z,13.80
2019-03-18T06:54:14.056Z,13.90
2019-03-18T06:56:55.574Z,13.80
2019-03-18T06:59:37.302Z,13.80
2019-03-18T07:02:17.899Z,13.90
2019-03-18T07:04:59.231Z,13.80
2019-03-18T07:07:40.776Z,13.60
2019-03-18T07:10:21.713Z,13.80
2019-03-18T07:13:02.521Z,13.80
2019-03-18T07:15:43.427Z,13.80
2019-03-18T07:18:24.967Z,13.90
2019-03-18T07:21:05.754Z,13.90
2019-03-18T07:23:47.387Z,13.90
2019-03-18T07:26:28.871Z,13.90
2019-03-18T07:29:10.652Z,13.90
2019-03-18T07:31:51.628Z,13.60
2019-03-18T07:34:32.378Z,13.90
2019-03-18T07:37:13.917Z,13.90
2019-03-18T07:39:55.638Z,13.80
2019-03-18T07:42:36.578Z,13.90
2019-03-18T07:45:17.967Z,13.60
2019-03-18T07:47:58.969Z,13.90
2019-03-18T07:50:40.276Z,14.00
2019-03-18T07:53:21.187Z,13.70
2019-03-18T07:56:01.901Z,14.00
2019-03-18T07:58:43.575Z,13.90
2019-03-18T08:01:24.257Z,13.90
2019-03-18T08:04:05.616Z,14.00
2019-03-18T08:06:46.317Z,14.00
2019-03-18T08:09:27.987Z,13.90
2019-03-18T08:12:09.849Z,14.00
2019-03-18T08:14:50.619Z,14.00
2019-03-18T08:17:32.284Z,13.90
2019-03-18T08:20:13.352Z,14.00
2019-03-18T08:22:54.869Z,14.00
2019-03-18T08:25:36.324Z,13.90
2019-03-18T08:28:17.334Z,14.00
2019-03-18T08:30:58.538Z,14.00
2019-03-18T08:33:40.098Z,14.00
2019-03-18T08:36:21.611Z,14.00
2019-03-18T08:39:02.448Z,14.00
2019-03-18T08:41:44.195Z,14.00
2019-03-18T08:44:25.621Z,14.00
2019-03-18T08:47:06.418Z,14.00
2019-03-18T08:49:47.774Z,14.00
2019-03-18T08:52:29.517Z,13.80
2019-03-18T08:55:10.915Z,14.10
2019-03-18T08:57:51.838Z,14.20
2019-03-18T09:00:33.051Z,14.20
2019-03-18T09:03:13.944Z,14.30
2019-03-18T09:05:55.279Z,14.30
2019-03-18T09:08:36.158Z,14.40
2019-03-18T09:11:17.585Z,14.50
2019-03-18T09:13:58.544Z,14.30
2019-03-18T09:16:39.531Z,14.60
2019-03-18T09:19:21.021Z,14.70
2019-03-18T09:22:02.379Z,14.70
2019-03-18T09:24:43.504Z,14.50
2019-03-18T09:27:24.687Z,14.90
2019-03-18T09:30:06.379Z,14.90
2019-03-18T09:32:47.149Z,15.00
2019-03-18T09:35:28.344Z,14.90
2019-03-18T09:38:08.972Z,15.00
2019-03-18T09:40:50.331Z,15.00
2019-03-18T09:43:30.978Z,15.00
2019-03-18T09:46:12.262Z,14.70
2019-03-18T09:48:52.875Z,14.90
2019-03-18T09:51:34.439Z,14.90
2019-03-18T09:54:15.359Z,14.90
2019-03-18T09:56:56.783Z,14.90
2019-03-18T09:59:37.655Z,14.80
2019-03-18T10:02:19.043Z,14.80
2019-03-18T10:05:00.069Z,14.80
2019-03-18T10:07:41.764Z,14.80
2019-03-18T10:10:23.410Z,14.80
2019-03-18T10:13:04.493Z,14.80
2019-03-18T10:15:46.034Z,14.70
2019-03-18T10:18:26.830Z,14.70
2019-03-18T10:21:08.414Z,14.70
2019-03-18T10:23:49.421Z,14.70
2019-03-18T10:26:30.180Z,14.70
2019-03-18T10:29:11.759Z,14.60
2019-03-18T10:31:52.706Z,14.40
2019-03-18T10:34:33.356Z,14.70
2019-03-18T10:37:14.272Z,14.60
2019-03-18T10:39:55.625Z,14.30
2019-03-18T10:42:36.335Z,14.60
2019-03-18T10:45:16.941Z,14.60
2019-03-18T10:47:58.354Z,14.60
2019-03-18T10:50:39.060Z,14.60
2019-03-18T10:53:20.341Z,14.50
2019-03-18T10:56:07.595Z,14.50
2019-03-18T10:58:43.629Z,14.60
2019-03-18T11:01:24.277Z,14.60
2019-03-18T11:04:05.826Z,14.60
2019-03-18T11:06:46.477Z,14.60
2019-03-18T11:09:28.098Z,14.60
2019-03-18T11:12:09.364Z,14.60
2019-03-18T11:14:50.015Z,14.60
2019-03-18T11:17:30.745Z,14.50
2019-03-18T11:20:12.329Z,14.50
2019-03-18T11:22:52.947Z,14.60
2019-03-18T11:25:33.785Z,14.60
2019-03-18T11:28:14.661Z,14.60
2019-03-18T11:30:56.462Z,14.60
2019-03-18T11:33:37.111Z,14.60
2019-03-18T11:36:18.868Z,14.30
2019-03-18T11:39:00.436Z,14.50
2019-03-18T11:41:41.740Z,14.50
2019-03-18T11:44:22.445Z,14.50
2019-03-18T11:47:03.464Z,14.50
2019-03-18T11:49:44.101Z,14.60
2019-03-18T11:52:25.163Z,14.50
2019-03-18T11:55:06.410Z,14.50
2019-03-18T11:57:47.135Z,14.60
2019-03-18T12:00:28.915Z,14.50
2019-03-18T12:03:11.759Z,14.50
2019-03-18T12:05:52.622Z,14.50
2019-03-18T12:08:33.444Z,14.50
2019-03-18T12:11:15.079Z,14.50
2019-03-18T12:13:55.969Z,14.50
2019-03-18T12:16:37.245Z,14.50
2019-03-18T12:19:17.865Z,14.60
2019-03-18T12:21:58.528Z,14.60
2019-03-18T12:24:39.189Z,14.60
2019-03-18T12:27:20.721Z,14.60
2019-03-18T12:30:01.822Z,14.60
2019-03-18T12:32:43.723Z,14.70
2019-03-18T12:35:24.655Z,14.60
2019-03-18T12:38:05.853Z,14.60
2019-03-18T12:40:46.753Z,14.60
2019-03-18T12:43:28.820Z,14.60
2019-03-18T12:46:10.170Z,14.60
2019-03-18T12:48:50.922Z,14.60
2019-03-18T12:51:32.393Z,14.60
2019-03-18T12:54:13.836Z,14.70
2019-03-18T12:56:55.072Z,14.60
2019-03-18T12:59:36.456Z,14.60
2019-03-18T13:02:17.709Z,14.60
2019-03-18T13:04:59.017Z,14.70
2019-03-18T13:07:39.794Z,14.70
2019-03-18T13:10:22.134Z,14.70
2019-03-18T13:13:03.724Z,14.70
2019-03-18T13:15:46.235Z,14.70
2019-03-18T13:18:26.972Z,14.70
2019-03-18T13:21:08.552Z,14.70
2019-03-18T13:23:49.840Z,14.70
2019-03-18T13:26:30.789Z,14.70
2019-03-18T13:29:12.332Z,14.70
2019-03-18T13:31:53.393Z,14.70
2019-03-18T13:34:34.698Z,14.70
2019-03-18T13:37:15.942Z,14.70
2019-03-18T13:39:57.450Z,14.70
2019-03-18T13:42:38.227Z,14.60
2019-03-18T13:45:19.594Z,14.60
2019-03-18T13:48:00.858Z,14.70
2019-03-18T13:50:42.287Z,14.70
2019-03-18T13:53:23.312Z,14.70
2019-03-18T13:56:04.764Z,14.70
2019-03-18T13:58:45.562Z,14.60
2019-03-18T14:01:27.067Z,14.60
2019-03-18T14:04:08.577Z,14.60
2019-03-18T14:06:50.069Z,14.60
2019-03-18T14:09:31.623Z,14.40
2019-03-18T14:12:12.518Z,14.60
2019-03-18T14:14:53.304Z,14.60
2019-03-18T14:17:34.874Z,14.60
2019-03-18T14:20:15.830Z,14.60
2019-03-18T14:22:57.496Z,14.60
2019-03-18T14:25:38.352Z,14.60
2019-03-18T14:28:18.967Z,14.60
2019-03-18T14:31:00.187Z,14.60
2019-03-18T14:33:40.927Z,14.60
2019-03-18T14:36:21.702Z,14.60
2019-03-18T14:39:03.830Z,14.60
2019-03-18T14:41:44.866Z,14.50
2019-03-18T14:44:26.483Z,14.60
2019-03-18T14:47:08.107Z,14.60
2019-03-18T14:49:49.645Z,14.40
2019-03-18T14:52:30.366Z,14.60
2019-03-18T14:55:11.784Z,14.60
2019-03-18T14:57:52.514Z,14.10
2019-03-18T15:03:38.362Z,14.60
2019-03-18T15:06:19.189Z,14.50
2019-03-18T15:09:00.020Z,14.50
2019-03-18T15:11:41.719Z,14.20
2019-03-18T15:14:23.243Z,14.60
2019-03-18T15:17:04.811Z,14.50
2019-03-18T15:19:46.226Z,14.50
2019-03-18T15:22:26.913Z,14.50
2019-03-18T15:25:07.562Z,14.10
2019-03-18T15:27:48.450Z,14.50
2019-03-18T15:30:29.242Z,14.50
2019-03-18T15:33:10.349Z,14.50
2019-03-18T15:35:51.669Z,14.50
2019-03-18T15:38:32.991Z,14.40
2019-03-18T15:41:13.867Z,14.40
2019-03-18T15:43:55.170Z,14.40
2019-03-18T15:46:37.754Z,14.40
2019-03-18T15:49:19.142Z,14.30
2019-03-18T15:52:10.498Z,14.50
2019-03-18T15:54:53.294Z,14.50
2019-03-18T15:57:29.911Z,14.50
2019-03-18T16:00:08.989Z,14.40
2019-03-18T16:02:50.474Z,14.40
2019-03-18T16:05:32.144Z,14.50
2019-03-18T16:08:13.692Z,14.40
2019-03-18T16:10:55.176Z,14.50
2019-03-18T16:13:36.719Z,14.40
2019-03-18T16:16:17.453Z,14.40
2019-03-18T16:18:58.462Z,14.40
2019-03-18T16:24:59.184Z,14.40
2019-03-18T16:27:40.823Z,14.00
2019-03-18T16:30:21.546Z,14.40
2019-03-18T16:33:02.834Z,14.40
2019-03-18T16:35:43.483Z,14.40
2019-03-18T16:38:24.645Z,14.40
2019-03-18T16:41:06.273Z,14.40
2019-03-18T16:43:47.577Z,14.40
2019-03-18T16:46:28.322Z,14.40
2019-03-18T16:49:09.011Z,14.30
2019-03-18T16:51:50.815Z,14.40
2019-03-18T16:54:31.926Z,14.30
2019-03-18T16:57:12.899Z,14.40
2019-03-18T16:59:54.368Z,14.40
2019-03-18T17:02:35.735Z,14.30
2019-03-18T17:05:16.684Z,14.00
2019-03-18T17:07:58.145Z,14.30
2019-03-18T17:10:39.737Z,14.00
2019-03-18T17:13:21.006Z,14.30
2019-03-18T17:16:02.630Z,14.30
2019-03-18T17:18:43.935Z,14.20
2019-03-18T17:21:24.609Z,14.30
2019-03-18T17:24:05.269Z,14.30
2019-03-18T17:26:46.187Z,14.20
2019-03-18T17:29:27.617Z,13.90
2019-03-18T17:32:08.236Z,13.90
2019-03-18T17:34:49.196Z,13.90
2019-03-18T17:37:29.972Z,14.20
2019-03-18T17:40:11.590Z,14.20
2019-03-18T17:42:52.879Z,14.20
2019-03-18T17:45:33.731Z,14.20
2019-03-18T17:48:15.355Z,14.20
2019-03-18T17:50:56.903Z,14.20
2019-03-18T17:53:38.475Z,13.80
2019-03-18T17:59:28.603Z,14.20
2019-03-18T18:02:09.703Z,13.90
2019-03-18T18:05:02.496Z,14.20
2019-03-18T18:07:33.930Z,14.20
2019-03-18T18:10:15.049Z,14.10
2019-03-18T18:12:59.639Z,14.10
2019-03-18T18:18:46.158Z,13.90
2019-03-18T18:21:27.342Z,13.90
2019-03-18T18:24:08.137Z,14.10
2019-03-18T18:26:49.758Z,14.10
2019-03-18T18:29:30.526Z,14.10
2019-03-18T18:32:11.435Z,14.10
2019-03-18T18:34:52.923Z,13.70
2019-03-18T18:37:34.567Z,14.10
2019-03-18T18:40:15.891Z,14.10
2019-03-18T18:42:57.760Z,14.10
2019-03-18T18:45:38.803Z,14.10
2019-03-18T18:48:19.554Z,14.00
2019-03-18T18:51:00.274Z,14.00
2019-03-18T18:53:41.079Z,14.00
2019-03-18T18:56:22.465Z,14.00
2019-03-18T18:59:04.159Z,13.70
2019-03-18T19:01:45.901Z,13.70
2019-03-18T19:04:26.823Z,14.00
2019-03-18T19:07:08.244Z,14.00
2019-03-18T19:09:49.334Z,14.00
2019-03-18T19:12:30.609Z,14.00
2019-03-18T19:15:11.316Z,14.00
2019-03-18T19:17:52.136Z,14.00
2019-03-18T19:20:32.936Z,13.90
2019-03-18T19:23:14.352Z,14.00
2019-03-18T19:25:55.056Z,14.00
2019-03-18T19:28:35.766Z,14.00
2019-03-18T19:31:17.578Z,13.90
2019-03-18T19:33:59.433Z,13.90
2019-03-18T19:36:40.747Z,13.50
2019-03-18T19:39:21.938Z,13.90
2019-03-18T19:42:02.677Z,13.90
2019-03-18T19:44:44.281Z,13.90
2019-03-18T19:47:25.157Z,13.90
2019-03-18T19:50:06.565Z,13.90
2019-03-18T19:52:47.317Z,13.90
2019-03-18T19:55:28.100Z,13.90
2019-03-18T19:58:09.657Z,13.60
2019-03-18T20:00:51.483Z,13.90
2019-03-18T20:06:21.589Z,13.80
2019-03-18T20:09:03.031Z,13.90
2019-03-18T20:11:44.606Z,13.60
2019-03-18T20:14:25.280Z,13.90
2019-03-18T20:17:06.237Z,13.80
2019-03-18T20:19:45.811Z,13.80
2019-03-18T20:25:42.059Z,13.60
2019-03-18T20:31:37.900Z,13.80
2019-03-18T20:34:26.275Z,13.90
2019-03-18T20:37:14.678Z,13.80
2019-03-18T20:40:01.412Z,13.90
2019-03-18T20:42:50.182Z,13.60
2019-03-18T20:45:38.632Z,13.80
2019-03-18T20:48:26.988Z,13.80
2019-03-18T20:51:15.346Z,13.80
2019-03-18T20:57:11.116Z,13.80
2019-03-18T21:03:06.806Z,13.80
2019-03-18T21:05:48.447Z,13.80
2019-03-18T21:08:30.140Z,13.80
2019-03-18T21:11:11.598Z,13.80
2019-03-18T21:13:56.986Z,13.80
2019-03-18T21:16:36.940Z,13.70
2019-03-18T21:19:18.492Z,13.80
2019-03-18T21:22:00.079Z,13.80
2019-03-18T21:24:41.557Z,13.70
2019-03-18T21:27:23.110Z,13.60
2019-03-18T21:30:04.701Z,13.70
2019-03-18T21:32:46.246Z,13.70
2019-03-18T21:35:27.896Z,13.70
2019-03-18T21:38:09.364Z,13.60
2019-03-18T21:40:51.084Z,13.70
2019-03-18T21:43:32.299Z,13.70
2019-03-18T21:46:13.773Z,13.60
2019-03-18T21:48:55.368Z,13.60
2019-03-18T21:51:36.038Z,13.60
2019-03-18T21:54:17.102Z,13.70
2019-03-18T21:56:58.188Z,13.70
2019-03-18T21:59:38.931Z,13.60
2019-03-18T22:02:20.290Z,13.70
2019-03-18T22:05:01.300Z,13.40
2019-03-18T22:07:42.338Z,13.70
2019-03-18T22:10:23.968Z,13.70
2019-03-18T22:13:05.649Z,13.70
2019-03-18T22:15:47.005Z,13.70
2019-03-18T22:18:28.629Z,13.70
2019-03-18T22:21:09.821Z,13.70
2019-03-18T22:23:51.124Z,13.60
2019-03-18T22:26:31.722Z,13.60
2019-03-18T22:29:12.715Z,13.60
2019-03-18T22:31:53.900Z,13.60
2019-03-18T22:34:35.291Z,13.60
2019-03-18T22:37:16.871Z,13.30
2019-03-18T22:39:57.647Z,13.60
2019-03-18T22:42:38.872Z,13.70
2019-03-18T22:45:20.409Z,13.60
2019-03-18T22:48:02.348Z,13.60
2019-03-18T22:50:43.103Z,13.60
2019-03-18T22:53:24.241Z,13.60
2019-03-18T22:56:04.980Z,13.60
2019-03-18T22:58:46.446Z,13.60
2019-03-18T23:01:28.107Z,13.60
2019-03-18T23:04:08.945Z,13.60
2019-03-18T23:06:49.735Z,13.60
2019-03-18T23:09:30.401Z,13.60
2019-03-18T23:12:11.629Z,13.50
2019-03-18T23:14:52.301Z,13.60
2019-03-18T23:17:33.461Z,13.60
2019-03-18T23:20:14.810Z,13.60
2019-03-18T23:22:55.504Z,13.60
2019-03-18T23:25:36.167Z,13.60
2019-03-18T23:28:17.069Z,13.50
2019-03-18T23:30:58.664Z,13.60
2019-03-18T23:33:40.008Z,13.20
2019-03-18T23:36:21.433Z,13.60
2019-03-18T23:39:03.089Z,13.50
2019-03-18T23:41:44.570Z,13.60
2019-03-18T23:44:28.232Z,13.60
2019-03-18T23:47:08.611Z,13.60
2019-03-18T23:49:49.291Z,13.50
2019-03-18T23:52:30.773Z,13.50
2019-03-18T23:55:18.820Z,13.20
2019-03-18T23:57:54.911Z,13.60
